Terminal Aerodrome Forecast
Issued by NWS

Home | Current Version | Previous Version | Text Only | Print | Product List | Glossary On
Versions: 1 2 3 4 5 6 7 8 9 10 11 12 13 14 15 16 17 18 19 20 21
000
FTUS44 KEWX 222300
TAFSSF
TAF
KSSF 222320Z 2300/2324 10003KT P6SM SKC
     FM230700 12005KT P6SM FEW014 SCT250
      TEMPO 2310/2313 BKN014=

USA.gov is the U.S. government's official web portal to all federal, state and local government web resources and services.